sensor_id;sensor_type;location;lat;lon;timestamp;pressure;altitude;pressure_sealevel;temperature;humidity
11806;BME280;5960;42.602;23.482;2022-10-22T00:01:25;94208.47;;;10.19;69.26
11806;BME280;5960;42.602;23.482;2022-10-22T00:03:52;94204.19;;;10.18;69.34
11806;BME280;5960;42.602;23.482;2022-10-22T00:06:19;94210.63;;;10.07;69.63
11806;BME280;5960;42.602;23.482;2022-10-22T00:08:48;94204.03;;;10.11;69.67
11806;BME280;5960;42.602;23.482;2022-10-22T00:11:17;94202.72;;;10.07;69.55
11806;BME280;5960;42.602;23.482;2022-10-22T00:13:44;94193.69;;;9.93;70.02
11806;BME280;5960;42.602;23.482;2022-10-22T00:16:11;94196.84;;;9.97;70.13
11806;BME280;5960;42.602;23.482;2022-10-22T00:18:39;94200.94;;;9.91;70.33
11806;BME280;5960;42.602;23.482;2022-10-22T00:21:06;94204.91;;;9.87;70.44
11806;BME280;5960;42.602;23.482;2022-10-22T00:23:33;94203.41;;;9.84;70.68
11806;BME280;5960;42.602;23.482;2022-10-22T00:26:02;94202.56;;;10.00;69.53
11806;BME280;5960;42.602;23.482;2022-10-22T00:28:28;94193.53;;;9.94;69.77
11806;BME280;5960;42.602;23.482;2022-10-22T00:30:55;94194.06;;;9.82;70.34
11806;BME280;5960;42.602;23.482;2022-10-22T00:33:22;94203.25;;;9.69;70.80
11806;BME280;5960;42.602;23.482;2022-10-22T00:35:49;94208.19;;;9.81;70.43
11806;BME280;5960;42.602;23.482;2022-10-22T00:38:16;94204.41;;;9.83;70.54
11806;BME280;5960;42.602;23.482;2022-10-22T00:40:43;94199.97;;;9.75;70.55
11806;BME280;5960;42.602;23.482;2022-10-22T00:43:12;94186.66;;;9.77;70.88
11806;BME280;5960;42.602;23.482;2022-10-22T00:45:39;94179.06;;;9.82;70.69
11806;BME280;5960;42.602;23.482;2022-10-22T00:48:08;94177.78;;;9.70;70.99
11806;BME280;5960;42.602;23.482;2022-10-22T00:50:39;94167.41;;;9.52;71.31
11806;BME280;5960;42.602;23.482;2022-10-22T00:53:09;94175.31;;;9.60;70.90
11806;BME280;5960;42.602;23.482;2022-10-22T00:55:41;94174.66;;;9.66;70.65
11806;BME280;5960;42.602;23.482;2022-10-22T00:58:10;94170.72;;;9.62;70.35
11806;BME280;5960;42.602;23.482;2022-10-22T01:00:38;94175.66;;;9.57;70.90
11806;BME280;5960;42.602;23.482;2022-10-22T01:03:05;94185.50;;;9.55;71.01
11806;BME280;5960;42.602;23.482;2022-10-22T01:05:38;94184.38;;;9.49;71.23
11806;BME280;5960;42.602;23.482;2022-10-22T01:08:10;94183.88;;;9.62;70.98
11806;BME280;5960;42.602;23.482;2022-10-22T01:10:53;94185.81;;;9.52;71.30
11806;BME280;5960;42.602;23.482;2022-10-22T01:13:32;94178.75;;;9.44;71.98
11806;BME280;5960;42.602;23.482;2022-10-22T01:16:09;94165.31;;;9.55;71.95
11806;BME280;5960;42.602;23.482;2022-10-22T01:18:40;94157.06;;;9.42;72.36
11806;BME280;5960;42.602;23.482;2022-10-22T01:21:20;94155.44;;;9.49;72.17
11806;BME280;5960;42.602;23.482;2022-10-22T01:26:53;94139.00;;;9.47;71.91
11806;BME280;5960;42.602;23.482;2022-10-22T01:29:26;94134.88;;;9.53;71.89
11806;BME280;5960;42.602;23.482;2022-10-22T01:31:58;94128.63;;;9.54;71.33
11806;BME280;5960;42.602;23.482;2022-10-22T01:34:27;94142.28;;;9.49;71.18
11806;BME280;5960;42.602;23.482;2022-10-22T01:36:56;94147.38;;;9.51;71.41
11806;BME280;5960;42.602;23.482;2022-10-22T01:39:24;94138.47;;;9.52;71.32
11806;BME280;5960;42.602;23.482;2022-10-22T01:41:53;94141.28;;;9.50;71.41
11806;BME280;5960;42.602;23.482;2022-10-22T01:44:27;94134.72;;;9.46;72.17
11806;BME280;5960;42.602;23.482;2022-10-22T01:47:03;94125.50;;;9.42;72.42
11806;BME280;5960;42.602;23.482;2022-10-22T01:49:45;94128.13;;;9.33;72.45
11806;BME280;5960;42.602;23.482;2022-10-22T01:52:26;94125.03;;;9.30;72.67
11806;BME280;5960;42.602;23.482;2022-10-22T01:55:02;94125.03;;;9.30;72.35
11806;BME280;5960;42.602;23.482;2022-10-22T01:57:40;94128.78;;;9.36;72.22
11806;BME280;5960;42.602;23.482;2022-10-22T02:00:11;94118.94;;;9.38;72.28
11806;BME280;5960;42.602;23.482;2022-10-22T02:02:42;94126.84;;;9.29;72.39
11806;BME280;5960;42.602;23.482;2022-10-22T02:05:12;94124.03;;;9.31;72.23
11806;BME280;5960;42.602;23.482;2022-10-22T02:07:44;94133.72;;;9.39;72.23
11806;BME280;5960;42.602;23.482;2022-10-22T02:10:13;94123.56;;;9.27;72.65
11806;BME280;5960;42.602;23.482;2022-10-22T02:12:42;94120.91;;;9.19;73.12
11806;BME280;5960;42.602;23.482;2022-10-22T02:15:12;94128.16;;;9.25;72.88
11806;BME280;5960;42.602;23.482;2022-10-22T02:17:42;94127.00;;;9.28;72.12
11806;BME280;5960;42.602;23.482;2022-10-22T02:20:15;94128.16;;;9.25;72.54
11806;BME280;5960;42.602;23.482;2022-10-22T02:22:44;94134.06;;;9.19;72.49
11806;BME280;5960;42.602;23.482;2022-10-22T02:25:12;94136.69;;;9.19;72.02
11806;BME280;5960;42.602;23.482;2022-10-22T02:27:42;94136.19;;;9.07;72.22
11806;BME280;5960;42.602;23.482;2022-10-22T02:30:13;94132.88;;;9.05;72.40
11806;BME280;5960;42.602;23.482;2022-10-22T02:32:44;94130.56;;;9.02;72.65
11806;BME280;5960;42.602;23.482;2022-10-22T02:35:15;94123.88;;;9.08;73.11
11806;BME280;5960;42.602;23.482;2022-10-22T02:37:43;94120.25;;;9.00;73.34
11806;BME280;5960;42.602;23.482;2022-10-22T02:40:10;94103.66;;;9.08;72.84
11806;BME280;5960;42.602;23.482;2022-10-22T02:42:39;94100.53;;;9.13;72.15
11806;BME280;5960;42.602;23.482;2022-10-22T02:45:08;94114.84;;;9.10;72.53
11806;BME280;5960;42.602;23.482;2022-10-22T02:47:36;94120.72;;;9.04;72.41
11806;BME280;5960;42.602;23.482;2022-10-22T02:50:04;94122.53;;;8.95;72.57
11806;BME280;5960;42.602;23.482;2022-10-22T02:52:30;94125.94;;;8.79;72.91
11806;BME280;5960;42.602;23.482;2022-10-22T02:54:57;94127.44;;;8.82;73.20
11806;BME280;5960;42.602;23.482;2022-10-22T02:57:24;94144.03;;;8.82;73.16
11806;BME280;5960;42.602;23.482;2022-10-22T02:59:51;94139.78;;;8.90;73.19
11806;BME280;5960;42.602;23.482;2022-10-22T03:02:17;94151.41;;;8.87;74.15
11806;BME280;5960;42.602;23.482;2022-10-22T03:04:45;94145.34;;;8.86;73.39
11806;BME280;5960;42.602;23.482;2022-10-22T03:07:12;94150.44;;;8.80;73.80
11806;BME280;5960;42.602;23.482;2022-10-22T03:09:39;94146.50;;;8.84;74.15
11806;BME280;5960;42.602;23.482;2022-10-22T03:12:06;94145.50;;;8.77;74.36
11806;BME280;5960;42.602;23.482;2022-10-22T03:14:33;94140.72;;;8.80;73.77
11806;BME280;5960;42.602;23.482;2022-10-22T03:17:00;94147.13;;;8.78;73.92
11806;BME280;5960;42.602;23.482;2022-10-22T03:19:27;94143.84;;;8.76;73.63
11806;BME280;5960;42.602;23.482;2022-10-22T03:21:58;94141.03;;;8.69;73.80
11806;BME280;5960;42.602;23.482;2022-10-22T03:24:29;94142.00;;;8.51;74.51
11806;BME280;5960;42.602;23.482;2022-10-22T03:26:57;94138.56;;;8.59;74.32
11806;BME280;5960;42.602;23.482;2022-10-22T03:29:25;94150.56;;;8.70;74.18
11806;BME280;5960;42.602;23.482;2022-10-22T03:31:52;94137.41;;;8.62;74.56
11806;BME280;5960;42.602;23.482;2022-10-22T03:34:20;94125.28;;;8.69;74.37
11806;BME280;5960;42.602;23.482;2022-10-22T03:36:47;94118.22;;;8.69;74.47
11806;BME280;5960;42.602;23.482;2022-10-22T03:39:17;94110.84;;;8.73;74.55
11806;BME280;5960;42.602;23.482;2022-10-22T03:41:45;94119.19;;;8.68;74.77
11806;BME280;5960;42.602;23.482;2022-10-22T03:44:12;94132.66;;;8.65;74.67
11806;BME280;5960;42.602;23.482;2022-10-22T03:46:41;94125.56;;;8.57;74.70
11806;BME280;5960;42.602;23.482;2022-10-22T03:49:07;94122.13;;;8.57;74.53
11806;BME280;5960;42.602;23.482;2022-10-22T03:51:34;94120.84;;;8.61;74.79
11806;BME280;5960;42.602;23.482;2022-10-22T03:54:01;94122.44;;;8.54;74.76
11806;BME280;5960;42.602;23.482;2022-10-22T03:56:29;94111.06;;;8.45;75.10
11806;BME280;5960;42.602;23.482;2022-10-22T03:58:57;94117.88;;;8.56;74.87
11806;BME280;5960;42.602;23.482;2022-10-22T04:01:25;94117.88;;;8.56;75.42
11806;BME280;5960;42.602;23.482;2022-10-22T04:03:52;94125.25;;;8.61;75.20
11806;BME280;5960;42.602;23.482;2022-10-22T04:06:19;94136.91;;;8.58;74.52
11806;BME280;5960;42.602;23.482;2022-10-22T04:08:45;94135.28;;;8.57;74.65
11806;BME280;5960;42.602;23.482;2022-10-22T04:11:14;94132.00;;;8.63;74.32
11806;BME280;5960;42.602;23.482;2022-10-22T04:13:43;94131.97;;;8.55;74.88
11806;BME280;5960;42.602;23.482;2022-10-22T04:16:12;94121.81;;;8.60;74.51
11806;BME280;5960;42.602;23.482;2022-10-22T04:18:39;94125.56;;;8.49;75.14
11806;BME280;5960;42.602;23.482;2022-10-22T04:21:08;94119.34;;;8.50;76.17
11806;BME280;5960;42.602;23.482;2022-10-22T04:23:35;94112.72;;;8.46;76.26
11806;BME280;5960;42.602;23.482;2022-10-22T04:26:04;94112.94;;;8.53;76.20
11806;BME280;5960;42.602;23.482;2022-10-22T04:28:31;94106.53;;;8.55;76.17
11806;BME280;5960;42.602;23.482;2022-10-22T04:30:59;94104.59;;;8.66;75.49
11806;BME280;5960;42.602;23.482;2022-10-22T04:33:26;94109.84;;;8.66;75.52
11806;BME280;5960;42.602;23.482;2022-10-22T04:35:53;94103.47;;;8.85;74.74
11806;BME280;5960;42.602;23.482;2022-10-22T04:38:20;94098.56;;;8.82;74.78
11806;BME280;5960;42.602;23.482;2022-10-22T04:40:46;94113.00;;;8.78;75.35
11806;BME280;5960;42.602;23.482;2022-10-22T04:43:13;94110.69;;;8.83;74.84
11806;BME280;5960;42.602;23.482;2022-10-22T04:45:40;94108.91;;;8.92;75.02
11806;BME280;5960;42.602;23.482;2022-10-22T04:48:08;94119.56;;;8.90;75.16
11806;BME280;5960;42.602;23.482;2022-10-22T04:50:35;94120.91;;;9.11;74.42
11806;BME280;5960;42.602;23.482;2022-10-22T04:53:02;94122.69;;;9.02;74.55
11806;BME280;5960;42.602;23.482;2022-10-22T04:55:28;94127.16;;;9.01;74.75
11806;BME280;5960;42.602;23.482;2022-10-22T04:57:55;94116.78;;;9.08;74.77
11806;BME280;5960;42.602;23.482;2022-10-22T05:00:22;94114.66;;;9.03;74.97
11806;BME280;5960;42.602;23.482;2022-10-22T05:02:49;94113.50;;;9.06;75.09
11806;BME280;5960;42.602;23.482;2022-10-22T05:05:17;94114.66;;;9.20;74.94
11806;BME280;5960;42.602;23.482;2022-10-22T05:07:44;94108.09;;;9.24;74.93
11806;BME280;5960;42.602;23.482;2022-10-22T05:10:11;94115.31;;;9.39;74.53
11806;BME280;5960;42.602;23.482;2022-10-22T05:12:38;94126.00;;;9.54;73.99
11806;BME280;5960;42.602;23.482;2022-10-22T05:15:05;94125.19;;;9.53;73.74
11806;BME280;5960;42.602;23.482;2022-10-22T05:17:34;94118.59;;;9.57;73.51
11806;BME280;5960;42.602;23.482;2022-10-22T05:20:01;94131.06;;;9.63;73.16
11806;BME280;5960;42.602;23.482;2022-10-22T05:22:29;94135.69;;;9.61;73.42
11806;BME280;5960;42.602;23.482;2022-10-22T05:24:56;94147.66;;;9.72;73.06
11806;BME280;5960;42.602;23.482;2022-10-22T05:27:23;94159.38;;;9.78;72.81
11806;BME280;5960;42.602;23.482;2022-10-22T05:29:50;94160.97;;;9.79;71.99
11806;BME280;5960;42.602;23.482;2022-10-22T05:32:17;94149.00;;;9.68;72.11
11806;BME280;5960;42.602;23.482;2022-10-22T05:34:44;94147.03;;;9.62;72.36
11806;BME280;5960;42.602;23.482;2022-10-22T05:37:11;94148.84;;;9.61;72.95
11806;BME280;5960;42.602;23.482;2022-10-22T05:39:39;94155.09;;;9.69;73.12
11806;BME280;5960;42.602;23.482;2022-10-22T05:42:06;94142.63;;;9.54;72.97
11806;BME280;5960;42.602;23.482;2022-10-22T05:44:32;94148.84;;;9.53;73.54
11806;BME280;5960;42.602;23.482;2022-10-22T05:46:59;94153.44;;;9.68;73.33
11806;BME280;5960;42.602;23.482;2022-10-22T05:49:26;94157.56;;;9.62;73.25
11806;BME280;5960;42.602;23.482;2022-10-22T05:51:53;94162.47;;;9.73;73.19
11806;BME280;5960;42.602;23.482;2022-10-22T05:54:20;94160.16;;;9.70;72.93
11806;BME280;5960;42.602;23.482;2022-10-22T05:56:48;94154.09;;;9.78;72.88
11806;BME280;5960;42.602;23.482;2022-10-22T05:59:15;94151.09;;;9.81;72.74
11806;BME280;5960;42.602;23.482;2022-10-22T06:01:42;94148.66;;;9.88;72.44
11806;BME280;5960;42.602;23.482;2022-10-22T06:04:10;94148.47;;;9.89;72.95
11806;BME280;5960;42.602;23.482;2022-10-22T06:06:40;94149.41;;;10.05;72.67
11806;BME280;5960;42.602;23.482;2022-10-22T06:09:14;94153.81;;;10.29;72.34
11806;BME280;5960;42.602;23.482;2022-10-22T06:11:43;94146.50;;;10.56;71.83
11806;BME280;5960;42.602;23.482;2022-10-22T06:14:11;94143.59;;;10.74;70.37
11806;BME280;5960;42.602;23.482;2022-10-22T06:16:38;94148.72;;;10.76;70.00
11806;BME280;5960;42.602;23.482;2022-10-22T06:19:06;94155.22;;;10.88;69.88
11806;BME280;5960;42.602;23.482;2022-10-22T06:21:33;94155.63;;;11.00;68.70
11806;BME280;5960;42.602;23.482;2022-10-22T06:24:00;94149.88;;;11.05;69.02
11806;BME280;5960;42.602;23.482;2022-10-22T06:26:28;94160.06;;;11.31;68.70
11806;BME280;5960;42.602;23.482;2022-10-22T06:28:55;94163.56;;;11.70;68.80
11806;BME280;5960;42.602;23.482;2022-10-22T06:31:24;94172.19;;;12.02;66.98
11806;BME280;5960;42.602;23.482;2022-10-22T06:33:52;94166.31;;;12.30;65.44
11806;BME280;5960;42.602;23.482;2022-10-22T06:36:20;94171.03;;;12.49;65.43
11806;BME280;5960;42.602;23.482;2022-10-22T06:38:50;94170.38;;;12.77;63.80
11806;BME280;5960;42.602;23.482;2022-10-22T06:41:18;94169.22;;;13.02;63.05
11806;BME280;5960;42.602;23.482;2022-10-22T06:43:45;94164.47;;;13.12;61.19
11806;BME280;5960;42.602;23.482;2022-10-22T06:46:13;94171.31;;;13.21;60.16
11806;BME280;5960;42.602;23.482;2022-10-22T06:48:42;94178.72;;;13.33;60.26
11806;BME280;5960;42.602;23.482;2022-10-22T06:51:10;94175.69;;;13.51;59.07
11806;BME280;5960;42.602;23.482;2022-10-22T06:53:38;94171.19;;;13.51;59.19
11806;BME280;5960;42.602;23.482;2022-10-22T06:56:06;94175.47;;;13.74;59.00
11806;BME280;5960;42.602;23.482;2022-10-22T06:58:33;94172.94;;;13.88;59.49
11806;BME280;5960;42.602;23.482;2022-10-22T07:01:01;94171.09;;;14.17;57.99
11806;BME280;5960;42.602;23.482;2022-10-22T07:03:28;94167.16;;;14.34;57.01
11806;BME280;5960;42.602;23.482;2022-10-22T07:05:59;94170.91;;;14.47;56.84
11806;BME280;5960;42.602;23.482;2022-10-22T07:08:26;94172.00;;;14.59;55.95
11806;BME280;5960;42.602;23.482;2022-10-22T07:10:53;94177.59;;;14.71;56.54
11806;BME280;5960;42.602;23.482;2022-10-22T07:13:21;94176.88;;;14.97;57.11
11806;BME280;5960;42.602;23.482;2022-10-22T07:15:51;94169.44;;;15.28;56.37
11806;BME280;5960;42.602;23.482;2022-10-22T07:18:19;94163.97;;;15.49;55.78
11806;BME280;5960;42.602;23.482;2022-10-22T07:20:46;94162.53;;;15.60;55.54
11806;BME280;5960;42.602;23.482;2022-10-22T07:23:15;94154.59;;;15.80;54.59
11806;BME280;5960;42.602;23.482;2022-10-22T07:25:42;94150.13;;;16.08;52.87
11806;BME280;5960;42.602;23.482;2022-10-22T07:28:09;94157.28;;;16.07;53.08
11806;BME280;5960;42.602;23.482;2022-10-22T07:30:36;94157.06;;;16.22;53.25
11806;BME280;5960;42.602;23.482;2022-10-22T07:33:03;94160.88;;;16.67;52.42
11806;BME280;5960;42.602;23.482;2022-10-22T07:35:30;94162.00;;;16.91;51.91
11806;BME280;5960;42.602;23.482;2022-10-22T07:37:58;94166.41;;;17.24;50.65
11806;BME280;5960;42.602;23.482;2022-10-22T07:40:26;94163.25;;;17.41;50.08
11806;BME280;5960;42.602;23.482;2022-10-22T07:42:53;94167.56;;;17.67;49.36
11806;BME280;5960;42.602;23.482;2022-10-22T07:45:20;94162.25;;;17.67;48.96
11806;BME280;5960;42.602;23.482;2022-10-22T07:47:47;94159.75;;;17.40;49.43
11806;BME280;5960;42.602;23.482;2022-10-22T07:50:14;94161.63;;;17.72;49.54
11806;BME280;5960;42.602;23.482;2022-10-22T07:52:42;94149.84;;;18.12;49.13
11806;BME280;5960;42.602;23.482;2022-10-22T07:55:09;94142.13;;;18.03;47.42
11806;BME280;5960;42.602;23.482;2022-10-22T07:57:38;94131.75;;;17.88;47.98
11806;BME280;5960;42.602;23.482;2022-10-22T08:00:07;94130.91;;;18.20;47.72
11806;BME280;5960;42.602;23.482;2022-10-22T08:02:34;94123.53;;;18.59;47.25
11806;BME280;5960;42.602;23.482;2022-10-22T08:05:01;94120.03;;;18.96;46.53
11806;BME280;5960;42.602;23.482;2022-10-22T08:07:28;94126.28;;;19.39;45.71
11806;BME280;5960;42.602;23.482;2022-10-22T08:09:55;94137.03;;;19.63;45.34
11806;BME280;5960;42.602;23.482;2022-10-22T08:12:22;94146.31;;;19.91;44.26
11806;BME280;5960;42.602;23.482;2022-10-22T08:14:50;94151.69;;;20.26;43.35
11806;BME280;5960;42.602;23.482;2022-10-22T08:17:17;94145.06;;;20.65;42.75
11806;BME280;5960;42.602;23.482;2022-10-22T08:19:43;94139.31;;;20.97;41.54
11806;BME280;5960;42.602;23.482;2022-10-22T08:22:10;94140.06;;;21.21;41.37
11806;BME280;5960;42.602;23.482;2022-10-22T08:24:37;94132.03;;;21.50;40.99
11806;BME280;5960;42.602;23.482;2022-10-22T08:27:04;94123.72;;;21.81;40.47
11806;BME280;5960;42.602;23.482;2022-10-22T08:29:31;94128.69;;;22.06;39.81
11806;BME280;5960;42.602;23.482;2022-10-22T08:31:59;94126.19;;;22.16;39.89
11806;BME280;5960;42.602;23.482;2022-10-22T08:34:27;94127.88;;;21.88;39.15
11806;BME280;5960;42.602;23.482;2022-10-22T08:36:54;94123.31;;;21.89;40.30
11806;BME280;5960;42.602;23.482;2022-10-22T08:39:21;94123.75;;;21.98;39.56
11806;BME280;5960;42.602;23.482;2022-10-22T08:41:55;94121.47;;;21.89;39.92
11806;BME280;5960;42.602;23.482;2022-10-22T08:44:41;94126.41;;;22.15;39.48
11806;BME280;5960;42.602;23.482;2022-10-22T08:47:23;94136.34;;;22.48;38.24
11806;BME280;5960;42.602;23.482;2022-10-22T08:49:53;94144.44;;;22.71;38.42
11806;BME280;5960;42.602;23.482;2022-10-22T08:52:21;94142.97;;;23.02;36.83
11806;BME280;5960;42.602;23.482;2022-10-22T08:54:51;94134.78;;;23.14;37.04
11806;BME280;5960;42.602;23.482;2022-10-22T08:57:35;94132.84;;;23.32;36.07
11806;BME280;5960;42.602;23.482;2022-10-22T09:00:24;94132.03;;;23.09;35.89
11806;BME280;5960;42.602;23.482;2022-10-22T09:03:09;94130.72;;;22.89;36.61
11806;BME280;5960;42.602;23.482;2022-10-22T09:05:46;94124.66;;;22.99;37.18
11806;BME280;5960;42.602;23.482;2022-10-22T09:08:16;94118.03;;;23.29;36.55
11806;BME280;5960;42.602;23.482;2022-10-22T09:10:47;94134.09;;;23.46;36.30
11806;BME280;5960;42.602;23.482;2022-10-22T09:13:18;94124.28;;;22.90;35.83
11806;BME280;5960;42.602;23.482;2022-10-22T09:15:48;94129.22;;;22.59;37.75
11806;BME280;5960;42.602;23.482;2022-10-22T09:18:27;94125.72;;;22.76;37.28
11806;BME280;5960;42.602;23.482;2022-10-22T09:21:05;94127.69;;;23.08;36.89
11806;BME280;5960;42.602;23.482;2022-10-22T09:23:38;94120.81;;;23.39;36.37
11806;BME280;5960;42.602;23.482;2022-10-22T09:26:13;94114.63;;;23.66;35.64
11806;BME280;5960;42.602;23.482;2022-10-22T09:28:41;94120.06;;;23.71;35.18
11806;BME280;5960;42.602;23.482;2022-10-22T09:31:10;94111.47;;;24.02;35.13
11806;BME280;5960;42.602;23.482;2022-10-22T09:33:40;94120.53;;;24.23;34.51
11806;BME280;5960;42.602;23.482;2022-10-22T09:36:12;94107.81;;;24.13;34.65
11806;BME280;5960;42.602;23.482;2022-10-22T09:38:45;94102.09;;;24.04;35.12
11806;BME280;5960;42.602;23.482;2022-10-22T09:41:13;94111.34;;;24.19;34.90
11806;BME280;5960;42.602;23.482;2022-10-22T09:43:40;94098.66;;;23.82;35.14
11806;BME280;5960;42.602;23.482;2022-10-22T09:46:14;94097.41;;;24.27;34.96
11806;BME280;5960;42.602;23.482;2022-10-22T09:48:46;94088.06;;;24.40;33.76
11806;BME280;5960;42.602;23.482;2022-10-22T09:51:17;94083.00;;;24.49;34.09
11806;BME280;5960;42.602;23.482;2022-10-22T09:53:45;94082.13;;;24.38;33.82
11806;BME280;5960;42.602;23.482;2022-10-22T09:56:26;94071.66;;;24.04;34.52
11806;BME280;5960;42.602;23.482;2022-10-22T09:58:55;94075.69;;;24.01;35.23
11806;BME280;5960;42.602;23.482;2022-10-22T10:01:24;94074.81;;;24.33;34.62
11806;BME280;5960;42.602;23.482;2022-10-22T10:03:53;94076.16;;;24.74;33.68
11806;BME280;5960;42.602;23.482;2022-10-22T10:06:22;94083.81;;;25.03;32.97
11806;BME280;5960;42.602;23.482;2022-10-22T10:08:49;94076.31;;;25.26;33.16
11806;BME280;5960;42.602;23.482;2022-10-22T10:11:22;94083.16;;;25.59;32.46
11806;BME280;5960;42.602;23.482;2022-10-22T10:14:00;94084.00;;;25.75;32.55
11806;BME280;5960;42.602;23.482;2022-10-22T10:16:41;94076.97;;;25.95;32.09
11806;BME280;5960;42.602;23.482;2022-10-22T10:19:29;94061.69;;;24.96;32.79
11806;BME280;5960;42.602;23.482;2022-10-22T10:22:06;94067.19;;;24.63;33.28
11806;BME280;5960;42.602;23.482;2022-10-22T10:24:47;94063.34;;;25.07;33.67
11806;BME280;5960;42.602;23.482;2022-10-22T10:27:22;94070.72;;;25.43;32.64
11806;BME280;5960;42.602;23.482;2022-10-22T10:29:55;94076.94;;;25.53;32.66
11806;BME280;5960;42.602;23.482;2022-10-22T10:32:46;94064.22;;;25.38;32.49
11806;BME280;5960;42.602;23.482;2022-10-22T10:35:23;94064.13;;;25.02;33.04
11806;BME280;5960;42.602;23.482;2022-10-22T10:38:03;94060.53;;;24.81;32.43
11806;BME280;5960;42.602;23.482;2022-10-22T10:40:41;94048.31;;;24.68;33.21
11806;BME280;5960;42.602;23.482;2022-10-22T10:43:14;94041.66;;;24.76;33.29
11806;BME280;5960;42.602;23.482;2022-10-22T10:45:53;94039.63;;;25.14;32.95
11806;BME280;5960;42.602;23.482;2022-10-22T10:48:31;94030.03;;;25.65;32.75
11806;BME280;5960;42.602;23.482;2022-10-22T10:51:06;94028.38;;;26.05;32.16
11806;BME280;5960;42.602;23.482;2022-10-22T10:53:50;94013.72;;;26.48;31.80
11806;BME280;5960;42.602;23.482;2022-10-22T10:56:34;94006.47;;;26.33;31.21
11806;BME280;5960;42.602;23.482;2022-10-22T10:59:13;94004.78;;;26.57;31.27
11806;BME280;5960;42.602;23.482;2022-10-22T11:01:51;94013.03;;;26.97;30.72
11806;BME280;5960;42.602;23.482;2022-10-22T11:04:44;94008.91;;;27.10;30.00
11806;BME280;5960;42.602;23.482;2022-10-22T11:07:21;94002.41;;;27.11;30.37
11806;BME280;5960;42.602;23.482;2022-10-22T11:09:54;94006.22;;;27.05;29.72
11806;BME280;5960;42.602;23.482;2022-10-22T11:12:26;94005.75;;;26.93;30.93
11806;BME280;5960;42.602;23.482;2022-10-22T11:14:58;94004.22;;;27.26;30.30
11806;BME280;5960;42.602;23.482;2022-10-22T11:17:32;93992.34;;;26.56;30.94
11806;BME280;5960;42.602;23.482;2022-10-22T11:20:05;93991.03;;;26.49;30.65
11806;BME280;5960;42.602;23.482;2022-10-22T11:22:44;93973.41;;;26.67;30.87
11806;BME280;5960;42.602;23.482;2022-10-22T11:25:17;93975.88;;;26.58;30.36
11806;BME280;5960;42.602;23.482;2022-10-22T11:27:48;93967.56;;;26.39;31.46
11806;BME280;5960;42.602;23.482;2022-10-22T11:30:18;93964.91;;;26.94;30.89
11806;BME280;5960;42.602;23.482;2022-10-22T11:32:49;93954.19;;;27.58;30.63
11806;BME280;5960;42.602;23.482;2022-10-22T11:35:19;93943.69;;;27.81;28.92
11806;BME280;5960;42.602;23.482;2022-10-22T11:37:49;93949.44;;;28.04;29.11
11806;BME280;5960;42.602;23.482;2022-10-22T11:40:20;93946.34;;;28.64;28.13
11806;BME280;5960;42.602;23.482;2022-10-22T11:42:49;93936.63;;;28.15;29.18
11806;BME280;5960;42.602;23.482;2022-10-22T11:45:29;93930.41;;;29.01;28.37
11806;BME280;5960;42.602;23.482;2022-10-22T11:47:59;93935.03;;;30.05;26.84
11806;BME280;5960;42.602;23.482;2022-10-22T11:50:53;93928.25;;;29.88;27.09
11806;BME280;5960;42.602;23.482;2022-10-22T11:53:30;93937.06;;;30.27;26.39
11806;BME280;5960;42.602;23.482;2022-10-22T11:55:57;93940.69;;;30.65;25.60
11806;BME280;5960;42.602;23.482;2022-10-22T11:58:31;93931.22;;;31.72;24.79
11806;BME280;5960;42.602;23.482;2022-10-22T12:01:17;93933.53;;;33.26;23.99
11806;BME280;5960;42.602;23.482;2022-10-22T12:03:48;93935.75;;;34.33;22.61
11806;BME280;5960;42.602;23.482;2022-10-22T12:06:21;93932.38;;;34.75;21.96
11806;BME280;5960;42.602;23.482;2022-10-22T12:08:57;93936.44;;;35.20;21.10
11806;BME280;5960;42.602;23.482;2022-10-22T12:11:34;93923.31;;;35.68;21.12
11806;BME280;5960;42.602;23.482;2022-10-22T12:14:13;93920.09;;;36.58;20.28
11806;BME280;5960;42.602;23.482;2022-10-22T12:16:43;93913.38;;;37.62;19.76
11806;BME280;5960;42.602;23.482;2022-10-22T12:19:16;93913.19;;;38.44;19.07
11806;BME280;5960;42.602;23.482;2022-10-22T12:21:47;93911.69;;;39.34;18.22
11806;BME280;5960;42.602;23.482;2022-10-22T12:24:18;93908.63;;;39.98;17.73
11806;BME280;5960;42.602;23.482;2022-10-22T12:26:45;93913.75;;;39.77;17.18
11806;BME280;5960;42.602;23.482;2022-10-22T12:29:15;93907.13;;;38.55;18.47
11806;BME280;5960;42.602;23.482;2022-10-22T12:31:44;93899.38;;;38.60;17.83
11806;BME280;5960;42.602;23.482;2022-10-22T12:34:13;93892.53;;;38.86;17.93
11806;BME280;5960;42.602;23.482;2022-10-22T12:36:40;93907.63;;;39.67;17.84
11806;BME280;5960;42.602;23.482;2022-10-22T12:39:13;93905.94;;;40.49;17.06
11806;BME280;5960;42.602;23.482;2022-10-22T12:41:42;93908.78;;;38.91;18.18
11806;BME280;5960;42.602;23.482;2022-10-22T12:44:11;93902.31;;;39.58;17.53
11806;BME280;5960;42.602;23.482;2022-10-22T12:46:38;93904.91;;;40.34;17.07
11806;BME280;5960;42.602;23.482;2022-10-22T12:49:11;93910.81;;;40.82;16.62
11806;BME280;5960;42.602;23.482;2022-10-22T12:51:39;93901.31;;;41.06;16.37
11806;BME280;5960;42.602;23.482;2022-10-22T12:54:12;93900.59;;;41.10;16.40
11806;BME280;5960;42.602;23.482;2022-10-22T12:56:41;93895.84;;;41.41;16.72
11806;BME280;5960;42.602;23.482;2022-10-22T12:59:16;93899.13;;;40.92;16.49
11806;BME280;5960;42.602;23.482;2022-10-22T13:01:45;93886.13;;;41.24;16.37
11806;BME280;5960;42.602;23.482;2022-10-22T13:04:21;93885.75;;;41.21;16.33
11806;BME280;5960;42.602;23.482;2022-10-22T13:06:49;93877.75;;;40.62;16.10
11806;BME280;5960;42.602;23.482;2022-10-22T13:09:18;93868.88;;;40.03;16.92
11806;BME280;5960;42.602;23.482;2022-10-22T13:11:52;93872.03;;;40.25;17.37
11806;BME280;5960;42.602;23.482;2022-10-22T13:14:25;93868.09;;;40.49;16.76
11806;BME280;5960;42.602;23.482;2022-10-22T13:17:10;93863.22;;;40.92;16.35
11806;BME280;5960;42.602;23.482;2022-10-22T13:19:40;93868.66;;;40.89;16.69
11806;BME280;5960;42.602;23.482;2022-10-22T13:22:28;93884.78;;;41.10;16.61
11806;BME280;5960;42.602;23.482;2022-10-22T13:24:57;93877.94;;;39.80;16.96